createdAt,value
2022-10-02T00:02:17.858Z,13.80
2022-10-02T00:04:56.160Z,13.70
2022-10-02T00:07:29.726Z,13.80
2022-10-02T00:10:01.431Z,13.80
2022-10-02T00:12:30.640Z,13.80
2022-10-02T00:15:07.077Z,13.80
2022-10-02T00:17:40.353Z,13.90
2022-10-02T00:20:16.634Z,13.90
2022-10-02T00:23:12.467Z,13.80
2022-10-02T00:26:08.957Z,13.80
2022-10-02T00:28:44.692Z,13.80
2022-10-02T00:31:16.955Z,13.70
2022-10-02T00:34:09.325Z,13.80
2022-10-02T00:36:57.140Z,13.80
2022-10-02T00:39:36.208Z,13.80
2022-10-02T00:42:14.617Z,13.80
2022-10-02T00:44:50.812Z,13.80
2022-10-02T00:47:53.234Z,13.80
2022-10-02T00:50:45.070Z,13.80
2022-10-02T00:53:47.294Z,13.80
2022-10-02T00:56:41.411Z,13.80
2022-10-02T00:59:22.482Z,13.80
2022-10-02T01:01:52.635Z,13.70
2022-10-02T01:04:37.351Z,13.70
2022-10-02T01:07:11.423Z,13.70
2022-10-02T01:09:39.540Z,13.80
2022-10-02T01:12:07.557Z,13.70
2022-10-02T01:14:35.995Z,13.70
2022-10-02T01:17:05.488Z,13.80
2022-10-02T01:19:38.635Z,13.70
2022-10-02T01:22:08.133Z,13.70
2022-10-02T01:24:43.614Z,13.80
2022-10-02T01:27:10.466Z,13.80
2022-10-02T01:29:37.189Z,13.80
2022-10-02T01:32:04.355Z,13.80
2022-10-02T01:34:31.747Z,13.80
2022-10-02T01:36:59.006Z,13.70
2022-10-02T01:39:26.466Z,13.70
2022-10-02T01:41:55.488Z,13.70
2022-10-02T01:44:23.430Z,13.70
2022-10-02T01:46:49.976Z,13.60
2022-10-02T01:49:32.181Z,13.60
2022-10-02T01:52:22.872Z,13.70
2022-10-02T01:55:04.645Z,13.80
2022-10-02T01:57:49.228Z,13.80
2022-10-02T02:00:25.007Z,13.70
2022-10-02T02:03:02.419Z,13.80
2022-10-02T02:05:50.147Z,13.70
2022-10-02T02:08:34.845Z,13.80
2022-10-02T02:11:04.425Z,13.80
2022-10-02T02:13:39.924Z,13.80
2022-10-02T02:16:11.510Z,13.90
2022-10-02T02:18:48.418Z,13.90
2022-10-02T02:21:22.324Z,13.90
2022-10-02T02:23:49.829Z,13.90
2022-10-02T02:26:19.581Z,13.90
2022-10-02T02:28:59.990Z,13.90
2022-10-02T02:31:33.096Z,14.00
2022-10-02T02:34:03.559Z,14.00
2022-10-02T02:36:37.720Z,13.90
2022-10-02T02:39:11.677Z,13.90
2022-10-02T02:41:43.784Z,13.80
2022-10-02T02:44:24.335Z,13.80
2022-10-02T02:47:11.202Z,13.80
2022-10-02T02:50:05.293Z,13.80
2022-10-02T02:52:44.970Z,13.90
2022-10-02T02:55:52.900Z,13.90
2022-10-02T02:58:28.152Z,13.90
2022-10-02T03:00:55.553Z,13.90
2022-10-02T03:03:22.485Z,13.90
2022-10-02T03:05:53.196Z,13.90
2022-10-02T03:08:26.949Z,14.00
2022-10-02T03:11:05.423Z,14.10
2022-10-02T03:13:40.949Z,14.00
2022-10-02T03:16:16.755Z,14.00
2022-10-02T03:19:01.271Z,14.10
2022-10-02T03:21:45.676Z,14.10
2022-10-02T03:24:50.701Z,14.10
2022-10-02T03:27:37.055Z,14.10
2022-10-02T03:30:07.045Z,14.10
2022-10-02T03:32:34.889Z,14.10
2022-10-02T03:35:02.757Z,14.10
2022-10-02T03:37:29.685Z,14.10
2022-10-02T03:40:01.100Z,14.10
2022-10-02T03:42:31.367Z,14.10
2022-10-02T03:44:57.954Z,14.10
2022-10-02T03:47:24.599Z,14.10
2022-10-02T03:49:51.219Z,14.10
2022-10-02T03:52:20.180Z,14.10
2022-10-02T03:54:48.332Z,14.00
2022-10-02T03:57:21.928Z,14.00
2022-10-02T04:00:00.874Z,14.00
2022-10-02T04:02:37.935Z,14.00
2022-10-02T04:05:16.599Z,14.00
2022-10-02T04:07:50.250Z,14.00
2022-10-02T04:10:28.075Z,14.00
2022-10-02T04:13:04.353Z,14.00
2022-10-02T04:15:41.662Z,14.00
2022-10-02T04:18:17.351Z,14.00
2022-10-02T04:21:00.007Z,14.00
2022-10-02T04:23:33.719Z,14.00
2022-10-02T04:26:23.793Z,14.00
2022-10-02T04:28:59.660Z,14.00
2022-10-02T04:31:27.968Z,14.00
2022-10-02T04:33:59.076Z,14.00
2022-10-02T04:36:36.781Z,14.00
2022-10-02T04:39:48.543Z,14.00
2022-10-02T04:42:18.126Z,14.00
2022-10-02T04:45:05.139Z,14.00
2022-10-02T04:47:46.752Z,14.00
2022-10-02T04:50:45.354Z,14.00
2022-10-02T04:53:34.440Z,14.00
2022-10-02T04:56:31.888Z,14.00
2022-10-02T04:59:09.294Z,14.00
2022-10-02T05:02:13.574Z,14.00
2022-10-02T05:05:12.396Z,14.00
2022-10-02T05:07:59.902Z,14.00
2022-10-02T05:10:54.815Z,14.00
2022-10-02T05:13:39.956Z,13.90
2022-10-02T05:16:25.480Z,13.80
2022-10-02T05:19:01.102Z,13.80
2022-10-02T05:21:40.244Z,13.80
2022-10-02T05:24:27.796Z,13.90
2022-10-02T05:27:08.777Z,13.80
2022-10-02T05:30:05.135Z,13.90
2022-10-02T05:32:34.771Z,13.90
2022-10-02T05:35:24.242Z,13.90
2022-10-02T05:37:59.762Z,13.80
2022-10-02T05:40:35.192Z,13.80
2022-10-02T05:43:13.146Z,13.90
2022-10-02T05:45:52.234Z,13.80
2022-10-02T05:48:34.636Z,13.80
2022-10-02T05:51:25.971Z,13.80
2022-10-02T05:54:05.214Z,13.90
2022-10-02T05:56:47.483Z,13.90
2022-10-02T05:59:47.597Z,13.90
2022-10-02T06:02:25.955Z,13.90
2022-10-02T06:05:05.870Z,14.00
2022-10-02T06:07:33.063Z,14.00
2022-10-02T06:10:14.816Z,13.90
2022-10-02T06:12:50.486Z,14.00
2022-10-02T06:15:22.860Z,14.00
2022-10-02T06:18:05.145Z,14.00
2022-10-02T06:21:01.549Z,14.00
2022-10-02T06:23:45.604Z,14.00
2022-10-02T06:26:24.255Z,13.90
2022-10-02T06:28:56.709Z,13.80
2022-10-02T06:31:51.407Z,13.90
2022-10-02T06:34:18.517Z,13.80
2022-10-02T06:37:06.563Z,13.90
2022-10-02T06:39:41.549Z,13.90
2022-10-02T06:42:33.289Z,14.00
2022-10-02T06:45:15.958Z,14.00
2022-10-02T06:48:05.376Z,14.00
2022-10-02T06:50:41.992Z,14.00
2022-10-02T06:53:11.706Z,14.00
2022-10-02T06:55:43.320Z,13.90
2022-10-02T06:58:34.593Z,14.00
2022-10-02T07:01:10.876Z,14.00
2022-10-02T07:04:06.189Z,14.00
2022-10-02T07:06:58.079Z,14.00
2022-10-02T07:10:14.335Z,14.10
2022-10-02T07:12:57.335Z,14.00
2022-10-02T07:16:06.778Z,14.10
2022-10-02T07:18:49.791Z,14.10
2022-10-02T07:21:32.517Z,14.00
2022-10-02T07:24:36.776Z,14.00
2022-10-02T07:27:21.485Z,14.00
2022-10-02T07:30:10.492Z,14.00
2022-10-02T07:32:48.749Z,14.00
2022-10-02T07:35:40.833Z,14.00
2022-10-02T07:38:13.328Z,14.00
2022-10-02T07:40:48.757Z,14.00
2022-10-02T07:43:43.134Z,14.00
2022-10-02T07:46:36.186Z,14.00
2022-10-02T07:49:21.053Z,14.10
2022-10-02T07:52:02.251Z,14.10
2022-10-02T07:54:54.797Z,14.10
2022-10-02T07:57:30.269Z,14.00
2022-10-02T08:00:07.518Z,14.00
2022-10-02T08:03:01.744Z,14.10
2022-10-02T08:05:36.551Z,14.20
2022-10-02T08:08:32.180Z,14.00
2022-10-02T08:11:09.902Z,13.90
2022-10-02T08:13:43.389Z,14.00
2022-10-02T08:16:13.801Z,14.00
2022-10-02T08:18:58.226Z,14.00
2022-10-02T08:21:26.660Z,14.10
2022-10-02T08:24:06.283Z,14.20
2022-10-02T08:26:36.294Z,14.40
2022-10-02T08:29:24.750Z,14.40
2022-10-02T08:31:53.130Z,14.40
2022-10-02T08:34:25.111Z,14.30
2022-10-02T08:36:54.664Z,14.40
2022-10-02T08:39:52.602Z,14.50
2022-10-02T08:42:55.410Z,14.50
2022-10-02T08:45:48.260Z,14.50
2022-10-02T08:48:54.952Z,14.50
2022-10-02T08:51:40.295Z,14.50
2022-10-02T08:54:32.519Z,14.60
2022-10-02T08:57:17.832Z,14.60
2022-10-02T09:00:06.558Z,14.60
2022-10-02T09:03:07.414Z,14.70
2022-10-02T09:05:52.299Z,14.80
2022-10-02T09:08:42.392Z,14.90
2022-10-02T09:11:39.237Z,15.10
2022-10-02T09:14:26.877Z,15.00
2022-10-02T09:17:11.751Z,15.20
2022-10-02T09:19:50.284Z,15.30
2022-10-02T09:22:38.771Z,15.30
2022-10-02T09:25:22.195Z,15.40
2022-10-02T09:28:01.995Z,15.50
2022-10-02T09:30:57.525Z,15.60
2022-10-02T09:33:45.744Z,15.70
2022-10-02T09:36:35.603Z,16.00
2022-10-02T09:39:27.229Z,15.90
2022-10-02T09:42:20.865Z,16.00
2022-10-02T09:45:08.880Z,16.20
2022-10-02T09:47:44.545Z,16.10
2022-10-02T09:50:30.172Z,16.20
2022-10-02T09:53:09.137Z,16.20
2022-10-02T09:56:26.774Z,16.20
2022-10-02T09:59:30.925Z,16.20
2022-10-02T10:02:25.900Z,16.30
2022-10-02T10:05:13.975Z,16.50
2022-10-02T10:08:18.829Z,16.50
2022-10-02T10:10:55.999Z,16.60
2022-10-02T10:13:34.794Z,16.50
2022-10-02T10:16:30.225Z,16.50
2022-10-02T10:19:14.944Z,16.30
2022-10-02T10:21:57.781Z,16.00
2022-10-02T10:25:12.349Z,15.90
2022-10-02T10:28:06.228Z,15.70
2022-10-02T10:30:55.465Z,15.70
2022-10-02T10:33:43.683Z,15.70
2022-10-02T10:36:53.765Z,15.70
2022-10-02T10:39:58.672Z,15.60
2022-10-02T10:43:06.654Z,15.60
2022-10-02T10:45:58.901Z,15.60
2022-10-02T10:48:33.973Z,15.60
2022-10-02T10:51:16.484Z,15.60
2022-10-02T10:54:16.178Z,15.60
2022-10-02T10:57:04.279Z,15.70
2022-10-02T10:59:30.860Z,15.80
2022-10-02T11:02:29.619Z,15.90
2022-10-02T11:05:35.858Z,15.90
2022-10-02T11:08:06.235Z,16.00
2022-10-02T11:10:53.334Z,16.10
2022-10-02T11:13:44.968Z,16.00
2022-10-02T11:16:35.082Z,15.60
2022-10-02T11:19:21.743Z,15.60
2022-10-02T11:22:07.882Z,15.60
2022-10-02T11:24:48.096Z,15.60
2022-10-02T11:27:20.440Z,15.60
2022-10-02T11:30:08.980Z,15.60
2022-10-02T11:32:51.182Z,15.70
2022-10-02T11:35:23.230Z,15.60
2022-10-02T11:38:09.445Z,15.70
2022-10-02T11:40:39.102Z,15.80
2022-10-02T11:43:45.237Z,15.80
2022-10-02T11:46:52.137Z,15.70
2022-10-02T11:49:35.510Z,15.60
2022-10-02T11:52:20.899Z,15.60
2022-10-02T11:54:59.723Z,15.50
2022-10-02T11:57:45.694Z,15.40
2022-10-02T12:00:15.994Z,15.50
2022-10-02T12:02:55.189Z,15.50
2022-10-02T12:05:57.844Z,15.40
2022-10-02T12:08:56.789Z,15.40
2022-10-02T12:11:23.384Z,15.30
2022-10-02T12:14:25.059Z,15.30
2022-10-02T12:17:18.452Z,15.30
2022-10-02T12:20:42.784Z,15.30
2022-10-02T12:23:33.810Z,15.40
2022-10-02T12:26:31.088Z,15.30
2022-10-02T12:29:08.303Z,15.30
2022-10-02T12:31:58.345Z,15.30
2022-10-02T12:34:44.827Z,15.30
2022-10-02T12:37:29.751Z,15.20
2022-10-02T12:40:24.451Z,15.20
2022-10-02T12:43:00.128Z,15.10
2022-10-02T12:45:44.220Z,15.00
2022-10-02T12:48:26.050Z,15.00
2022-10-02T12:51:05.928Z,15.00
2022-10-02T12:53:57.534Z,15.10
2022-10-02T12:57:38.925Z,15.00
2022-10-02T13:00:16.942Z,15.00
2022-10-02T13:03:09.463Z,15.10
2022-10-02T13:05:57.946Z,15.10
2022-10-02T13:08:48.953Z,15.00
2022-10-02T13:11:35.932Z,15.00
2022-10-02T13:14:17.955Z,15.00
2022-10-02T13:17:10.713Z,14.90
2022-10-02T13:19:40.227Z,14.90
2022-10-02T13:22:37.119Z,14.80
2022-10-02T13:25:25.867Z,14.90
2022-10-02T13:28:32.457Z,15.00
2022-10-02T13:31:22.353Z,15.00
2022-10-02T13:33:48.976Z,14.90
2022-10-02T13:36:33.369Z,15.00
2022-10-02T13:39:48.993Z,15.00
2022-10-02T13:42:56.966Z,15.00
2022-10-02T13:45:50.641Z,14.80
2022-10-02T13:48:54.942Z,14.70
2022-10-02T13:51:40.278Z,14.80
2022-10-02T13:54:39.696Z,14.90
2022-10-02T13:57:41.025Z,15.00
2022-10-02T14:00:15.120Z,15.00
2022-10-02T14:02:52.970Z,15.40
2022-10-02T14:05:34.818Z,15.40
2022-10-02T14:08:38.777Z,15.40
2022-10-02T14:11:15.770Z,15.40
2022-10-02T14:13:48.245Z,15.30
2022-10-02T14:16:30.507Z,15.30
2022-10-02T14:19:24.601Z,15.40
2022-10-02T14:22:33.761Z,15.50
2022-10-02T14:25:11.994Z,15.40
2022-10-02T14:27:50.572Z,15.40
2022-10-02T14:30:21.314Z,15.40
2022-10-02T14:33:22.844Z,15.50
2022-10-02T14:36:01.804Z,15.40
2022-10-02T14:38:35.350Z,15.30
2022-10-02T14:41:28.143Z,15.30
2022-10-02T14:44:45.414Z,15.30
2022-10-02T14:47:46.276Z,15.30
2022-10-02T14:50:37.189Z,15.20
2022-10-02T14:53:06.694Z,15.20
2022-10-02T14:55:54.882Z,15.20
2022-10-02T14:58:36.651Z,15.30
2022-10-02T15:01:23.230Z,15.30
2022-10-02T15:04:00.982Z,15.30
2022-10-02T15:06:31.503Z,15.30
2022-10-02T15:09:12.945Z,15.30
2022-10-02T15:11:42.421Z,15.40
2022-10-02T15:14:09.015Z,15.40
2022-10-02T15:17:06.906Z,15.40
2022-10-02T15:19:49.025Z,15.40
2022-10-02T15:22:24.446Z,15.40
2022-10-02T15:24:56.187Z,15.40
2022-10-02T15:27:23.121Z,15.30
2022-10-02T15:30:04.853Z,15.30
2022-10-02T15:32:52.281Z,15.30
2022-10-02T15:36:09.980Z,15.30
2022-10-02T15:39:04.890Z,15.20
2022-10-02T15:42:00.259Z,15.20
2022-10-02T15:44:54.324Z,15.10
2022-10-02T15:47:27.369Z,15.10
2022-10-02T15:50:17.947Z,15.10
2022-10-02T15:53:15.321Z,15.10
2022-10-02T15:55:45.695Z,15.20
2022-10-02T15:58:45.785Z,15.20
2022-10-02T16:01:23.730Z,15.20
2022-10-02T16:04:22.325Z,15.10
2022-10-02T16:07:13.405Z,15.10
2022-10-02T16:10:03.729Z,15.10
2022-10-02T16:13:04.164Z,15.10
2022-10-02T16:15:55.125Z,15.20
2022-10-02T16:18:41.615Z,15.20
2022-10-02T16:21:12.543Z,15.20
2022-10-02T16:23:51.340Z,15.20
2022-10-02T16:26:34.861Z,15.20
2022-10-02T16:29:26.419Z,15.10
2022-10-02T16:32:01.894Z,15.10
2022-10-02T16:34:39.143Z,15.00
2022-10-02T16:37:22.653Z,15.00
2022-10-02T16:39:59.619Z,15.00
2022-10-02T16:42:51.295Z,15.00
2022-10-02T16:45:36.670Z,15.00
2022-10-02T16:48:24.299Z,15.00
2022-10-02T16:51:09.990Z,15.00
2022-10-02T16:54:02.485Z,14.90
2022-10-02T16:56:45.987Z,14.90
2022-10-02T16:59:20.114Z,15.00
2022-10-02T17:02:17.538Z,15.00
2022-10-02T17:05:11.073Z,14.90
2022-10-02T17:07:52.940Z,14.80
2022-10-02T17:10:37.212Z,14.90
2022-10-02T17:13:09.603Z,14.90
2022-10-02T17:15:52.186Z,14.90
2022-10-02T17:18:40.669Z,14.90
2022-10-02T17:21:13.242Z,14.80
2022-10-02T17:24:03.662Z,14.80
2022-10-02T17:26:41.809Z,14.80
2022-10-02T17:29:27.798Z,14.80
2022-10-02T17:31:58.496Z,14.80
2022-10-02T17:34:47.791Z,14.80
2022-10-02T17:37:17.469Z,14.80
2022-10-02T17:40:08.757Z,14.80
2022-10-02T17:43:01.297Z,14.80
2022-10-02T17:45:52.527Z,14.90
2022-10-02T17:48:28.613Z,14.80
2022-10-02T17:51:52.394Z,14.70
2022-10-02T17:54:44.208Z,14.80
2022-10-02T17:57:10.904Z,14.70
2022-10-02T17:59:58.097Z,14.70
2022-10-02T18:02:39.964Z,14.70
2022-10-02T18:05:25.258Z,14.80
2022-10-02T18:08:01.869Z,14.80
2022-10-02T18:11:07.459Z,14.70
2022-10-02T18:13:59.756Z,14.80
2022-10-02T18:17:00.537Z,14.60
2022-10-02T18:19:48.681Z,14.70
2022-10-02T18:22:16.055Z,14.70
2022-10-02T18:25:12.376Z,14.60
2022-10-02T18:27:42.144Z,14.70
2022-10-02T18:30:18.417Z,14.70
2022-10-02T18:33:05.257Z,14.60
2022-10-02T18:36:04.780Z,14.60
2022-10-02T18:38:50.008Z,14.70
2022-10-02T18:41:44.694Z,14.60
2022-10-02T18:44:42.524Z,14.60
2022-10-02T18:47:42.348Z,14.70
2022-10-02T18:50:28.608Z,14.60
2022-10-02T18:53:28.665Z,14.50
2022-10-02T18:56:12.234Z,14.50
2022-10-02T18:59:03.764Z,14.50
2022-10-02T19:01:53.913Z,14.50
2022-10-02T19:04:34.406Z,14.50
2022-10-02T19:07:17.463Z,14.40
2022-10-02T19:09:44.313Z,14.40
2022-10-02T19:12:17.533Z,14.30
2022-10-02T19:14:46.363Z,14.30
2022-10-02T19:17:18.054Z,14.40
2022-10-02T19:19:44.830Z,14.20
2022-10-02T19:22:32.964Z,14.20
2022-10-02T19:25:08.149Z,14.00
2022-10-02T19:27:37.331Z,14.10
2022-10-02T19:30:21.405Z,13.90
2022-10-02T19:32:50.681Z,13.90
2022-10-02T19:35:23.657Z,14.10
2022-10-02T19:37:53.765Z,14.20
2022-10-02T19:40:26.354Z,14.30
2022-10-02T19:43:01.976Z,14.20
2022-10-02T19:45:32.743Z,14.20
2022-10-02T19:48:04.642Z,14.20
2022-10-02T19:50:47.138Z,14.30
2022-10-02T19:53:24.215Z,14.40
2022-10-02T19:56:09.899Z,14.40
2022-10-02T19:58:44.165Z,14.40
2022-10-02T20:01:28.703Z,14.40
2022-10-02T20:03:58.269Z,14.40
2022-10-02T20:06:28.651Z,14.40
2022-10-02T20:09:02.764Z,14.40
2022-10-02T20:11:45.068Z,14.30
2022-10-02T20:14:21.555Z,14.40
2022-10-02T20:17:07.102Z,14.40
2022-10-02T20:19:57.743Z,14.40
2022-10-02T20:22:27.477Z,14.30
2022-10-02T20:25:11.841Z,14.30
2022-10-02T20:28:02.601Z,14.20
2022-10-02T20:30:37.663Z,14.20
2022-10-02T20:33:20.778Z,14.20
2022-10-02T20:36:14.149Z,14.20
2022-10-02T20:38:49.895Z,14.20
2022-10-02T20:42:01.097Z,14.20
2022-10-02T20:44:29.719Z,14.30
2022-10-02T20:47:11.545Z,14.30
2022-10-02T20:49:59.875Z,14.30
2022-10-02T20:52:40.354Z,14.20
2022-10-02T20:55:25.377Z,14.20
2022-10-02T20:58:15.995Z,14.20
2022-10-02T21:01:07.692Z,14.20
2022-10-02T21:03:37.083Z,14.20
2022-10-02T21:06:07.175Z,14.10
2022-10-02T21:08:52.833Z,14.10
2022-10-02T21:11:25.634Z,14.10
2022-10-02T21:14:29.530Z,14.10
2022-10-02T21:17:05.152Z,14.10
2022-10-02T21:19:45.962Z,14.10
2022-10-02T21:22:15.635Z,14.10
2022-10-02T21:24:54.367Z,14.10
2022-10-02T21:27:35.239Z,14.10
2022-10-02T21:30:15.250Z,14.00
2022-10-02T21:33:15.236Z,13.90
2022-10-02T21:36:05.530Z,13.90
2022-10-02T21:38:57.465Z,13.80
2022-10-02T21:41:24.056Z,13.80
2022-10-02T21:43:50.696Z,13.80
2022-10-02T21:46:39.347Z,13.80
2022-10-02T21:49:47.358Z,13.80
2022-10-02T21:52:14.028Z,13.80
2022-10-02T21:55:16.113Z,13.80
2022-10-02T21:58:30.071Z,13.80
2022-10-02T22:01:26.217Z,13.80
2022-10-02T22:04:30.585Z,13.80
2022-10-02T22:07:03.255Z,13.90
2022-10-02T22:09:33.146Z,13.90
2022-10-02T22:12:08.412Z,13.90
2022-10-02T22:14:39.464Z,13.80
2022-10-02T22:17:32.482Z,13.80
2022-10-02T22:20:28.116Z,13.80
2022-10-02T22:23:30.064Z,13.80
2022-10-02T22:26:35.823Z,13.80
2022-10-02T22:29:22.698Z,13.80
2022-10-02T22:32:32.769Z,13.80
2022-10-02T22:35:06.869Z,13.80
2022-10-02T22:38:10.502Z,13.90
2022-10-02T22:40:52.093Z,13.80
2022-10-02T22:43:26.151Z,13.90
2022-10-02T22:46:08.745Z,13.90
2022-10-02T22:48:40.002Z,13.80
2022-10-02T22:51:34.014Z,13.80
2022-10-02T22:54:22.347Z,13.70
2022-10-02T22:56:55.495Z,13.60
2022-10-02T22:59:52.519Z,13.60
2022-10-02T23:02:26.996Z,13.60
2022-10-02T23:05:01.849Z,13.60
2022-10-02T23:07:47.333Z,13.60
2022-10-02T23:10:37.945Z,13.60
2022-10-02T23:13:36.526Z,13.60
2022-10-02T23:16:37.393Z,13.50
2022-10-02T23:19:24.324Z,13.60
2022-10-02T23:21:56.248Z,13.50
2022-10-02T23:24:32.706Z,13.50
2022-10-02T23:27:16.163Z,13.40
2022-10-02T23:29:52.253Z,13.40
2022-10-02T23:32:33.962Z,13.40
2022-10-02T23:35:13.201Z,13.40
2022-10-02T23:38:14.722Z,13.40
2022-10-02T23:41:37.451Z,13.40
2022-10-02T23:44:17.085Z,13.30
2022-10-02T23:46:56.458Z,13.20
2022-10-02T23:49:59.334Z,13.20
2022-10-02T23:52:25.862Z,13.10
2022-10-02T23:55:14.163Z,13.10
2022-10-02T23:58:00.342Z,13.10
